IMF weather

Imphal Airport
Imphal, Manipur, India

Public forecast

Using degrees Celsius for public forecast. Weather courtesy of forecast.io.

METAR (pilot weather report)

Report is more than 6 hours old.

Retrieved 2019/06/25 12:00 UTC (10 hours ago):

VEIM 251200Z 27005KT 4000 BR FEW010 SCT018 BKN100 25/22 Q1007 NOSIG

TAF (pilot weather forecast)

Forecast is more than 12 hours old.

Retrieved 2017/12/28 12:00 UTC (1 year ago):

TAF VEIM 281100Z 2812/2821 06006KT 4000 BR FEW020 BECMG 2815/2817 00000KT 2000 BR